Flight Track Log - Related Links

Times and Time Zones

All times are in EDT time to prevent confusion due to time zone crossing. See the SKW4616 flight status page for this flight to view local times or setup timezone preferences in your user account.

Time Position Orientation Groundspeed Altitude Reporting Facility
EDT Latitude Longitude Course Direction KTS MPH feet Rate Location/Type
Tue 12:27:52 PM 40.7650 -111.9653 202° Southwest 180 207 4,900  Level Salt Lake Center
Tue 12:28:10 PM 40.7514 -111.9725 202° Southwest 173 199 5,600 1,726 Climbing Salt Lake Center
Tue 12:29:05 PM 40.7483 -112.0444 267° West 260 299 7,000 1,934 Climbing Salt Lake Center
Tue 12:30:11 PM 40.7967 -112.1183 311° West 282 325 9,500 2,409 Climbing Salt Lake Center
Tue 12:31:12 PM 40.8592 -112.1928 318° Northwest 299 344 12,100 2,780 Climbing Salt Lake Center
Tue 12:32:14 PM 40.9414 -112.1214 33° Northeast 341 392 15,200 2,226 Climbing Salt Lake Center
Tue 12:33:16 PM 40.9614 -111.9967 78° East 356 410 16,700 1,694 Climbing Salt Lake Center
Tue 12:34:18 PM 40.9911 -111.8644 73° East 381 438 18,700 1,805 Climbing Salt Lake Center
Tue 12:35:19 PM 41.0197 -111.7322 74° East 395 455 20,400 1,756 Climbing Salt Lake Center
Tue 12:36:21 PM 41.0575 -111.5631 73° East 403 464 22,300 1,694 Climbing Salt Lake Center
Tue 12:37:23 PM 41.0911 -111.4139 73° East 421 484 23,900 1,268 Climbing Salt Lake Center
Tue 12:38:24 PM 41.1244 -111.2611 74° East 430 495 24,900 1,073 Climbing Salt Lake Center
Tue 12:39:26 PM 41.1600 -111.0989 74° East 451 519 26,100 1,065 Climbing Salt Lake Center
Tue 12:40:28 PM 41.1992 -110.9147 74° East 464 534 27,100 878 Climbing Salt Lake Center
Tue 12:41:29 PM 41.2350 -110.7506 74° East 477 549 27,900 927 Climbing Salt Lake Center
Tue 12:42:31 PM 41.2753 -110.5536 75° East 491 565 29,000 871 Climbing Salt Lake Center
Tue 12:43:33 PM 41.3119 -110.3825 74° East 498 573 29,700 829 Climbing Salt Lake Center
Tue 12:44:34 PM 41.3489 -110.2086 74° East 507 583 30,700 927 Climbing Salt Lake Center
Tue 12:45:36 PM 41.3911 -110.0047 75° East 510 587 31,600 823 Climbing Salt Lake Center
Tue 12:46:38 PM 41.4275 -109.8283 75° East 512 589 32,400 927 Climbing Salt Lake Center
Tue 12:47:39 PM 41.4692 -109.6217 75° East 514 592 33,500 976 Climbing Salt Lake Center
Tue 12:48:41 PM 41.5050 -109.4458 75° East 514 592 34,400 726 Climbing Salt Lake Center
Tue 12:49:43 PM 41.5406 -109.2703 75° East 511 588 35,000 293 Climbing Salt Lake Center
Tue 12:50:44 PM 41.5822 -109.0575 75° East 517 595 35,000 390 Level Salt Lake Center
Tue 12:51:46 PM 41.6114 -108.8739 78° East 520 598 35,800 732 Climbing Salt Lake Center
Tue 12:52:47 PM 41.6353 -108.6933 80° East 518 596 36,500 585 Climbing Salt Lake Center
Tue 12:53:49 PM 41.6644 -108.4831 79° East 517 595 37,000 242 Climbing Salt Lake Center
Tue 12:54:51 PM 41.6886 -108.3019 80° East 517 595 37,000  Level Salt Lake Center
Tue 12:55:52 PM 41.7172 -108.0919 80° East 517 595 37,000  Level Salt Lake Center
Tue 12:56:54 PM 41.7422 -107.9142 79° East 514 592 37,000  Level Salt Lake Center
Tue 12:57:30 PM 41.7581 -107.7950 80° East 511 588 37,000  Level Denver Center
Tue 12:58:32 PM 41.7814 -107.6172 80° East 510 587 37,000  Level Denver Center
Tue 12:59:34 PM 41.8086 -107.4078 80° East 509 586 37,000  Level Denver Center
Tue 01:00:36 PM 41.8328 -107.2297 80° East 509 586 37,000  Level Denver Center
Tue 01:01:38 PM 41.8592 -107.0192 80° East 510 587 37,000  Level Denver Center
Tue 01:02:40 PM 41.8811 -106.8394 81° East 512 589 37,000  Level Denver Center
Tue 01:03:42 PM 41.9058 -106.6272 81° East 512 589 37,000  Level Denver Center
Tue 01:04:44 PM 41.9275 -106.4472 81° East 514 592 37,000  Level Denver Center
Tue 01:05:47 PM 41.9536 -106.2347 81° East 516 594 37,000  Level Denver Center
Tue 01:06:49 PM 41.9758 -106.0528 81° East 516 594 37,000  Level Denver Center
Tue 01:07:51 PM 42.0008 -105.8406 81° East 516 594 37,000  Level Denver Center
Tue 01:08:53 PM 42.0211 -105.6578 81° East 516 594 37,000  Level Denver Center
Tue 01:09:55 PM 42.0433 -105.4469 82° East 512 589 37,000  Level Denver Center
Tue 01:10:57 PM 42.0636 -105.2672 81° East 511 588 37,000  Level Denver Center
Tue 01:11:59 PM 42.0847 -105.0556 82° East 511 588 37,000  Level Denver Center
Tue 01:13:01 PM 42.0997 -104.8747 84° East 512 589 37,000  Level Denver Center
Tue 01:14:03 PM 42.1169 -104.6639 84° East 513 590 37,000  Level Denver Center
Tue 01:15:05 PM 42.1319 -104.4828 84° East 512 589 37,000  Level Denver Center
Tue 01:16:07 PM 42.1500 -104.2706 83° East 513 590 37,000  Level Denver Center
Tue 01:17:10 PM 42.1653 -104.0867 84° East 517 595 37,000  Level Denver Center
Tue 01:18:12 PM 42.1825 -103.8717 84° East 517 595 37,000  Level Denver Center
Tue 01:19:14 PM 42.1969 -103.6881 84° East 517 595 37,000  Level Denver Center
Tue 01:20:16 PM 42.2125 -103.4758 84° East 514 592 37,000  Level Denver Center
Tue 01:21:18 PM 42.2258 -103.2936 84° East 514 592 37,000  Level Denver Center
Tue 01:22:20 PM 42.2414 -103.0819 84° East 511 588 37,000  Level Denver Center
Tue 01:23:22 PM 42.2547 -102.8967 84° East 515 593 37,000  Level Denver Center
Tue 01:24:24 PM 42.2689 -102.6794 85° East 520 598 37,000  Level Denver Center
Tue 01:25:26 PM 42.2811 -102.4903 85° East 525 604 37,000  Level Denver Center
Tue 01:26:28 PM 42.2967 -102.2689 84° East 528 608 37,000  Level Denver Center
Tue 01:27:30 PM 42.3097 -102.0772 85° East 531 611 37,000  Level Denver Center
Tue 01:28:33 PM 42.3225 -101.8558 85° East 531 611 37,000  Level Denver Center
Tue 01:29:35 PM 42.3339 -101.6753 85° East 531 611 37,000  Level Denver Center
Tue 01:30:37 PM 42.3458 -101.4511 86° East 533 613 37,000  Level Denver Center
Tue 01:31:39 PM 42.3567 -101.2594 86° East 532 612 37,000  Level Denver Center
Tue 01:32:41 PM 42.3703 -101.0361 85° East 532 612 37,000  Level Denver Center
Tue 01:33:43 PM 42.3794 -100.8475 86° East 530 610 37,000  Level Denver Center
Tue 01:34:45 PM 42.3906 -100.6258 86° East 529 609 37,000  Level Denver Center
Tue 01:35:47 PM 42.4003 -100.4408 86° East 517 595 37,000  Level Denver Center
Tue 01:36:49 PM 42.4103 -100.2253 86° East 514 592 37,000  Level Denver Center
Tue 01:37:51 PM 42.4181 -100.0428 87° East 511 588 37,000  Level Denver Center
Tue 01:38:53 PM 42.4253 -99.8631 87° East 505 581 37,000  Level Denver Center
Tue 01:39:55 PM 42.4344 -99.6514 87° East 505 581 37,000  Level Denver Center
Tue 01:40:57 PM 42.4425 -99.4625 87° East 505 581 37,000  Level Denver Center
Tue 01:41:59 PM 42.4494 -99.2725 87° East 504 580 37,000  Level Denver Center
Tue 01:43:01 PM 42.4569 -99.0803 87° East 505 581 37,000  Level Denver Center
Tue 01:44:04 PM 42.4633 -98.8892 87° East 505 581 37,000  Level Denver Center
Tue 01:45:06 PM 42.4714 -98.6575 87° East 508 585 37,000  Level Denver Center
Tue 01:46:29 PM 42.4847 -98.3856 86° East 512 589 37,000  Level Minneapolis Center
Tue 01:47:31 PM 42.4953 -98.1922 86° East 512 589 37,000  Level Minneapolis Center
Tue 01:48:33 PM 42.5039 -97.9992 86° East 512 589 37,000  Level Minneapolis Center
Tue 01:49:35 PM 42.5111 -97.8317 87° East 512 589 37,000  Level Minneapolis Center
Tue 01:50:37 PM 42.5214 -97.6003 86° East 512 589 37,000  Level Minneapolis Center
Tue 01:51:39 PM 42.5292 -97.4089 87° East 512 589 37,000  Level Minneapolis Center
Tue 01:52:40 PM 42.5372 -97.2164 87° East 512 589 37,000  Level Minneapolis Center
Tue 01:53:42 PM 42.5425 -97.0239 88° East 512 589 37,000  Level Minneapolis Center
Tue 01:54:44 PM 42.5503 -96.8303 87° East 512 589 37,000  Level Minneapolis Center
Tue 01:55:46 PM 42.5572 -96.6364 87° East 512 589 37,000  Level Minneapolis Center
Tue 01:56:48 PM 42.5633 -96.4425 87° East 512 589 37,000  Level Minneapolis Center
Tue 01:57:50 PM 42.5703 -96.2106 88° East 512 589 37,000  Level Minneapolis Center
Tue 01:58:51 PM 42.5756 -96.0158 88° East 513 590 37,000  Level Minneapolis Center
Tue 01:59:53 PM 42.5811 -95.8219 88° East 513 590 37,000  Level Minneapolis Center
Tue 02:00:55 PM 42.5861 -95.6272 88° East 513 590 37,000  Level Minneapolis Center
Tue 02:01:57 PM 42.5908 -95.4336 88° East 513 590 37,000  Level Minneapolis Center
Tue 02:02:59 PM 42.5947 -95.2381 88° East 514 592 37,000 -48 Level Minneapolis Center
Tue 02:04:01 PM 42.5994 -95.0433 88° East 514 592 36,900 -290 Descending Minneapolis Center
Tue 02:05:03 PM 42.6036 -94.8519 88° East 513 590 36,400 -532 Descending Minneapolis Center
Tue 02:06:05 PM 42.6069 -94.6281 89° East 501 577 35,800 -537 Descending Minneapolis Center
Tue 02:07:06 PM 42.6081 -94.4475 89° East 487 560 35,300 -390 Descending Minneapolis Center
Tue 02:08:08 PM 42.6103 -94.2619 89° East 489 563 35,000 -145 Descending Minneapolis Center
Tue 02:09:10 PM 42.6042 -94.0697 92° East 509 586 35,000  Level Minneapolis Center
Tue 02:10:12 PM 42.5975 -93.8747 93° East 517 595 35,000  Level Minneapolis Center
Tue 02:11:13 PM 42.5911 -93.6775 92° East 525 604 35,000  Level Minneapolis Center
Tue 02:12:15 PM 42.5825 -93.4450 93° East 519 597 35,000  Level Minneapolis Center
Tue 02:13:17 PM 42.5758 -93.2586 93° East 505 581 35,000  Level Minneapolis Center
Tue 02:14:19 PM 42.5689 -93.0783 93° East 488 562 35,000  Level Minneapolis Center
Tue 02:15:21 PM 42.5614 -92.9003 93° East 478 550 35,000  Level Minneapolis Center
Tue 02:16:23 PM 42.5539 -92.7206 93° East 478 550 35,000 -293 Level Minneapolis Center
Tue 02:17:24 PM 42.5453 -92.5342 94° East 492 566 34,400 -878 Descending Minneapolis Center
Tue 02:18:26 PM 42.5356 -92.3053 93° East 508 585 33,200 -677 Descending Minneapolis Center
Tue 02:19:28 PM 42.5272 -92.1231 93° East 498 573 33,000 -290 Descending Minneapolis Center
Tue 02:20:30 PM 42.5231 -91.9475 92° East 480 552 32,600 -629 Descending Minneapolis Center
Tue 02:21:32 PM 42.5256 -91.7689 89° East 478 550 31,700 -774 Descending Minneapolis Center
Tue 02:22:34 PM 42.5256 -91.5597 90° East 478 550 31,000 -339 Descending Minneapolis Center
Tue 02:23:36 PM 42.5258 -91.3906 90° East 467 537 31,000  Level Minneapolis Center
Tue 02:24:38 PM 42.5264 -91.2225 90° East 458 527 31,000  Level Minneapolis Center
Tue 02:25:40 PM 42.5247 -91.0542 91° East 454 522 31,000  Level Minneapolis Center
Tue 02:26:41 PM 42.5253 -90.8847 90° East 454 522 31,000 -244 Level Minneapolis Center
Tue 02:27:43 PM 42.5236 -90.6794 91° East 455 524 30,500 -770 Descending Minneapolis Center
Tue 02:29:09 PM 42.5222 -90.4422 90° East 454 522 29,100 -973 Descending Chicago Center
Tue 02:30:11 PM 42.5203 -90.2781 91° East 441 507 28,100 -1,065 Descending Chicago Center
Tue 02:31:13 PM 42.5194 -90.1078 90° East 450 518 26,900 -1,392 Descending Chicago Center
Tue 02:32:16 PM 42.5150 -89.8886 92° East 497 572 25,200 -1,392 Descending Chicago Center
Tue 02:33:18 PM 42.5175 -89.7111 89° East 483 556 24,000 -1,258 Descending Chicago Center
Tue 02:34:20 PM 42.5147 -89.5361 91° East 473 544 22,600 -1,887 Descending Chicago Center
Tue 02:35:22 PM 42.5111 -89.3631 92° East 467 537 20,100 -2,661 Descending Chicago Center
Tue 02:36:24 PM 42.5086 -89.1622 91° East 453 521 17,100 -2,565 Descending Chicago Center
Tue 02:37:26 PM 42.5078 -89.0064 90° East 422 486 14,800 -2,032 Descending Chicago Center
Tue 02:38:28 PM 42.4839 -88.8586 102° East 416 479 12,900 -1,548 Descending Chicago Center
Tue 02:39:30 PM 42.4414 -88.7181 112° Southeast 404 465 11,600 -919 Descending Chicago Center
Tue 02:40:32 PM 42.4011 -88.5817 112° Southeast 397 457 11,000 -288 Descending Chicago Center
Tue 02:41:35 PM 42.3594 -88.4464 113° Southeast 393 452 11,000 -48 Level Chicago Center
Tue 02:42:37 PM 42.2878 -88.2967 123° Southeast 389 448 10,900 -677 Descending Chicago Center
Tue 02:43:39 PM 42.2267 -88.1978 130° Southeast 342 394 9,600 -1,258 Descending Chicago Center
Tue 02:44:41 PM 42.1650 -88.1111 134° Southeast 325 374 8,300 -1,113 Descending Chicago Center
Tue 02:45:43 PM 42.0994 -88.0350 139° Southeast 287 330 7,300 -629 Descending Chicago Center
Tue 02:46:45 PM 42.0917 -87.9447 97° East 244 281 7,000 -145 Descending Chicago Center
Tue 02:47:47 PM 42.0917 -87.8583 90° East 221 254 7,000 -581 Level Chicago Center
Tue 02:48:49 PM 42.0861 -87.7761 95° East 221 254 5,800 -1,104 Descending Chicago Center
Tue 02:49:52 PM 42.0758 -87.6903 99° East 219 252 4,700 -864 Descending Chicago Center
Tue 02:50:54 PM 42.0686 -87.6128 97° East 213 245 4,000 -339 Descending Chicago Center
Tue 02:51:56 PM 42.0161 -87.5969 167° South 195 224 4,000  Level Chicago Center
Tue 02:52:58 PM 41.9850 -87.6522 233° Southwest 171 197 4,000 -339 Level Chicago Center
Tue 02:54:00 PM 41.9833 -87.7131 268° West 165 190 3,300 -726 Descending Chicago Center
Tue 02:55:02 PM 41.9844 -87.7789 271° West 165 190 2,500 -823 Descending Chicago Center
Tue 02:56:04 PM 41.9833 -87.8339 268° West 150 173 1,600 -823 Descending Chicago Center
Tue 02:57:06 PM 41.9831 -87.8800 270° West 140 161 800 -774 Descending Chicago Center

Login

Don't have an account? Register now (free) for customized features, flight alerts, and more!